sensor_id;sensor_type;location;lat;lon;timestamp;temperature;humidity
22337;DHT22;14992;50.844;4.418;2022-08-25T00:00:17;25.00;99.90
22337;DHT22;14992;50.844;4.418;2022-08-25T00:03:13;25.00;99.90
22337;DHT22;14992;50.844;4.418;2022-08-25T00:05:48;25.00;99.90
22337;DHT22;14992;50.844;4.418;2022-08-25T00:08:45;25.10;99.90
22337;DHT22;14992;50.844;4.418;2022-08-25T00:11:33;25.10;99.90
22337;DHT22;14992;50.844;4.418;2022-08-25T00:14:24;25.10;99.90
22337;DHT22;14992;50.844;4.418;2022-08-25T00:17:06;25.00;99.90
22337;DHT22;14992;50.844;4.418;2022-08-25T00:19:55;24.80;99.90
22337;DHT22;14992;50.844;4.418;2022-08-25T00:22:36;24.70;99.90
22337;DHT22;14992;50.844;4.418;2022-08-25T00:25:26;24.60;99.90
22337;DHT22;14992;50.844;4.418;2022-08-25T00:28:15;24.60;99.90
22337;DHT22;14992;50.844;4.418;2022-08-25T00:30:58;24.60;99.90
22337;DHT22;14992;50.844;4.418;2022-08-25T00:33:47;24.50;99.90
22337;DHT22;14992;50.844;4.418;2022-08-25T00:36:42;24.50;99.90
22337;DHT22;14992;50.844;4.418;2022-08-25T00:39:24;24.60;99.90
22337;DHT22;14992;50.844;4.418;2022-08-25T00:42:21;24.50;99.90
22337;DHT22;14992;50.844;4.418;2022-08-25T00:45:05;24.50;99.90
22337;DHT22;14992;50.844;4.418;2022-08-25T00:47:53;24.20;99.90
22337;DHT22;14992;50.844;4.418;2022-08-25T00:50:35;24.30;99.90
22337;DHT22;14992;50.844;4.418;2022-08-25T00:53:24;24.40;99.90
22337;DHT22;14992;50.844;4.418;2022-08-25T00:56:19;24.30;99.90
22337;DHT22;14992;50.844;4.418;2022-08-25T00:59:09;24.10;99.90
22337;DHT22;14992;50.844;4.418;2022-08-25T01:02:06;24.20;99.90
22337;DHT22;14992;50.844;4.418;2022-08-25T01:04:49;24.20;99.90
22337;DHT22;14992;50.844;4.418;2022-08-25T01:07:45;24.20;99.90
22337;DHT22;14992;50.844;4.418;2022-08-25T01:10:33;24.00;99.90
22337;DHT22;14992;50.844;4.418;2022-08-25T01:13:33;24.00;99.90
22337;DHT22;14992;50.844;4.418;2022-08-25T01:16:24;23.90;99.90
22337;DHT22;14992;50.844;4.418;2022-08-25T01:19:08;23.90;99.90
22337;DHT22;14992;50.844;4.418;2022-08-25T01:21:57;24.00;99.90
22337;DHT22;14992;50.844;4.418;2022-08-25T01:24:43;23.90;99.90
22337;DHT22;14992;50.844;4.418;2022-08-25T01:27:32;23.80;99.90
22337;DHT22;14992;50.844;4.418;2022-08-25T01:30:14;23.80;99.90
22337;DHT22;14992;50.844;4.418;2022-08-25T01:33:11;23.80;99.90
22337;DHT22;14992;50.844;4.418;2022-08-25T01:35:53;23.80;99.90
22337;DHT22;14992;50.844;4.418;2022-08-25T01:38:50;23.70;99.90
22337;DHT22;14992;50.844;4.418;2022-08-25T01:41:44;23.80;99.90
22337;DHT22;14992;50.844;4.418;2022-08-25T01:44:38;23.80;99.90
22337;DHT22;14992;50.844;4.418;2022-08-25T01:47:19;23.90;99.90
22337;DHT22;14992;50.844;4.418;2022-08-25T01:50:08;24.00;99.90
22337;DHT22;14992;50.844;4.418;2022-08-25T01:52:54;24.10;99.90
22337;DHT22;14992;50.844;4.418;2022-08-25T01:55:44;23.80;99.90
22337;DHT22;14992;50.844;4.418;2022-08-25T01:58:45;23.70;99.90
22337;DHT22;14992;50.844;4.418;2022-08-25T02:01:40;23.50;99.90
22337;DHT22;14992;50.844;4.418;2022-08-25T02:04:21;23.30;99.90
22337;DHT22;14992;50.844;4.418;2022-08-25T02:07:12;23.30;99.90
22337;DHT22;14992;50.844;4.418;2022-08-25T02:09:53;23.40;99.90
22337;DHT22;14992;50.844;4.418;2022-08-25T02:12:44;23.40;99.90
22337;DHT22;14992;50.844;4.418;2022-08-25T02:15:33;23.40;99.90
22337;DHT22;14992;50.844;4.418;2022-08-25T02:18:15;23.20;99.90
22337;DHT22;14992;50.844;4.418;2022-08-25T02:21:04;23.20;99.90
22337;DHT22;14992;50.844;4.418;2022-08-25T02:23:45;23.40;99.90
22337;DHT22;14992;50.844;4.418;2022-08-25T02:26:41;23.40;99.90
22337;DHT22;14992;50.844;4.418;2022-08-25T02:29:24;23.60;99.90
22337;DHT22;14992;50.844;4.418;2022-08-25T02:32:21;23.70;99.90
22337;DHT22;14992;50.844;4.418;2022-08-25T02:35:03;23.80;99.90
22337;DHT22;14992;50.844;4.418;2022-08-25T02:37:51;23.80;99.90
22337;DHT22;14992;50.844;4.418;2022-08-25T02:40:33;23.90;99.90
22337;DHT22;14992;50.844;4.418;2022-08-25T02:43:22;23.90;99.90
22337;DHT22;14992;50.844;4.418;2022-08-25T02:46:20;23.90;99.90
22337;DHT22;14992;50.844;4.418;2022-08-25T02:49:01;24.00;99.90
22337;DHT22;14992;50.844;4.418;2022-08-25T02:51:57;23.70;99.90
22337;DHT22;14992;50.844;4.418;2022-08-25T02:54:38;23.50;99.90
22337;DHT22;14992;50.844;4.418;2022-08-25T02:57:34;23.40;99.90
22337;DHT22;14992;50.844;4.418;2022-08-25T03:00:22;23.20;99.90
22337;DHT22;14992;50.844;4.418;2022-08-25T03:03:18;23.20;99.90
22337;DHT22;14992;50.844;4.418;2022-08-25T03:06:08;23.40;99.90
22337;DHT22;14992;50.844;4.418;2022-08-25T03:08:50;23.60;99.90
22337;DHT22;14992;50.844;4.418;2022-08-25T03:11:39;23.60;99.90
22337;DHT22;14992;50.844;4.418;2022-08-25T03:14:21;23.40;99.90
22337;DHT22;14992;50.844;4.418;2022-08-25T03:17:09;23.10;99.90
22337;DHT22;14992;50.844;4.418;2022-08-25T03:19:51;22.90;99.90
22337;DHT22;14992;50.844;4.418;2022-08-25T03:22:47;22.80;99.90
22337;DHT22;14992;50.844;4.418;2022-08-25T03:25:29;22.80;99.90
22337;DHT22;14992;50.844;4.418;2022-08-25T03:28:41;23.00;99.90
22337;DHT22;14992;50.844;4.418;2022-08-25T03:31:23;23.10;99.90
22337;DHT22;14992;50.844;4.418;2022-08-25T03:34:12;23.10;99.90
22337;DHT22;14992;50.844;4.418;2022-08-25T03:36:56;23.10;99.90
22337;DHT22;14992;50.844;4.418;2022-08-25T03:39:45;23.20;99.90
22337;DHT22;14992;50.844;4.418;2022-08-25T03:42:26;23.20;99.90
22337;DHT22;14992;50.844;4.418;2022-08-25T03:45:16;23.00;99.90
22337;DHT22;14992;50.844;4.418;2022-08-25T03:47:58;23.00;99.90
22337;DHT22;14992;50.844;4.418;2022-08-25T03:50:49;23.00;99.90
22337;DHT22;14992;50.844;4.418;2022-08-25T03:53:32;23.00;99.90
22337;DHT22;14992;50.844;4.418;2022-08-25T03:56:28;23.10;99.90
22337;DHT22;14992;50.844;4.418;2022-08-25T03:59:16;23.00;99.90
22337;DHT22;14992;50.844;4.418;2022-08-25T04:02:11;23.00;99.90
22337;DHT22;14992;50.844;4.418;2022-08-25T04:04:52;22.90;99.90
22337;DHT22;14992;50.844;4.418;2022-08-25T04:07:48;23.00;99.90
22337;DHT22;14992;50.844;4.418;2022-08-25T04:10:31;23.10;99.90
22337;DHT22;14992;50.844;4.418;2022-08-25T04:13:26;23.40;99.90
22337;DHT22;14992;50.844;4.418;2022-08-25T04:16:11;23.60;99.90
22337;DHT22;14992;50.844;4.418;2022-08-25T04:19:02;23.40;99.90
22337;DHT22;14992;50.844;4.418;2022-08-25T04:21:44;23.50;99.90
22337;DHT22;14992;50.844;4.418;2022-08-25T04:24:36;23.40;99.90
22337;DHT22;14992;50.844;4.418;2022-08-25T04:27:18;23.50;99.90
22337;DHT22;14992;50.844;4.418;2022-08-25T04:30:08;23.40;99.90
22337;DHT22;14992;50.844;4.418;2022-08-25T04:32:49;23.30;99.90
22337;DHT22;14992;50.844;4.418;2022-08-25T04:35:38;23.30;99.90
22337;DHT22;14992;50.844;4.418;2022-08-25T04:38:19;23.10;99.90
22337;DHT22;14992;50.844;4.418;2022-08-25T04:41:17;23.10;99.90
22337;DHT22;14992;50.844;4.418;2022-08-25T04:44:00;23.20;99.90
22337;DHT22;14992;50.844;4.418;2022-08-25T04:46:55;23.00;99.90
22337;DHT22;14992;50.844;4.418;2022-08-25T04:49:36;22.80;99.90
22337;DHT22;14992;50.844;4.418;2022-08-25T04:52:31;22.70;99.90
22337;DHT22;14992;50.844;4.418;2022-08-25T04:55:12;22.70;99.90
22337;DHT22;14992;50.844;4.418;2022-08-25T04:58:00;22.70;99.90
22337;DHT22;14992;50.844;4.418;2022-08-25T05:01:02;22.80;99.90
22337;DHT22;14992;50.844;4.418;2022-08-25T05:03:58;22.60;99.90
22337;DHT22;14992;50.844;4.418;2022-08-25T05:07:08;22.80;99.90
22337;DHT22;14992;50.844;4.418;2022-08-25T05:09:49;22.90;99.90
22337;DHT22;14992;50.844;4.418;2022-08-25T05:12:45;22.90;99.90
22337;DHT22;14992;50.844;4.418;2022-08-25T05:15:27;22.80;99.90
22337;DHT22;14992;50.844;4.418;2022-08-25T05:18:41;22.80;99.90
22337;DHT22;14992;50.844;4.418;2022-08-25T05:21:25;22.90;99.90
22337;DHT22;14992;50.844;4.418;2022-08-25T05:24:14;23.30;99.90
22337;DHT22;14992;50.844;4.418;2022-08-25T05:26:56;23.40;99.90
22337;DHT22;14992;50.844;4.418;2022-08-25T05:29:45;23.20;99.90
22337;DHT22;14992;50.844;4.418;2022-08-25T05:32:26;23.20;99.90
22337;DHT22;14992;50.844;4.418;2022-08-25T05:35:16;23.30;99.90
22337;DHT22;14992;50.844;4.418;2022-08-25T05:37:58;23.60;99.90
22337;DHT22;14992;50.844;4.418;2022-08-25T05:40:56;23.70;99.90
22337;DHT22;14992;50.844;4.418;2022-08-25T05:43:40;23.80;99.90
22337;DHT22;14992;50.844;4.418;2022-08-25T05:46:35;23.80;99.90
22337;DHT22;14992;50.844;4.418;2022-08-25T05:49:17;23.70;99.90
22337;DHT22;14992;50.844;4.418;2022-08-25T05:52:14;23.80;99.90
22337;DHT22;14992;50.844;4.418;2022-08-25T05:54:56;24.00;99.90
22337;DHT22;14992;50.844;4.418;2022-08-25T05:57:52;24.00;99.90
22337;DHT22;14992;50.844;4.418;2022-08-25T06:00:33;24.40;99.90
22337;DHT22;14992;50.844;4.418;2022-08-25T06:03:29;24.70;99.90
22337;DHT22;14992;50.844;4.418;2022-08-25T06:06:09;24.60;99.90
22337;DHT22;14992;50.844;4.418;2022-08-25T06:09:01;24.50;99.90
22337;DHT22;14992;50.844;4.418;2022-08-25T06:11:43;24.60;99.90
22337;DHT22;14992;50.844;4.418;2022-08-25T06:14:34;24.60;99.90
22337;DHT22;14992;50.844;4.418;2022-08-25T06:17:15;24.80;99.90
22337;DHT22;14992;50.844;4.418;2022-08-25T06:20:05;24.80;99.90
22337;DHT22;14992;50.844;4.418;2022-08-25T06:22:48;24.80;99.90
22337;DHT22;14992;50.844;4.418;2022-08-25T06:25:37;24.90;99.90
22337;DHT22;14992;50.844;4.418;2022-08-25T06:28:19;24.90;99.90
22337;DHT22;14992;50.844;4.418;2022-08-25T06:31:08;24.90;99.90
22337;DHT22;14992;50.844;4.418;2022-08-25T06:33:49;24.90;99.90
22337;DHT22;14992;50.844;4.418;2022-08-25T06:36:45;25.10;99.90
22337;DHT22;14992;50.844;4.418;2022-08-25T06:39:27;25.10;99.90
22337;DHT22;14992;50.844;4.418;2022-08-25T06:42:23;25.10;99.90
22337;DHT22;14992;50.844;4.418;2022-08-25T06:45:13;25.10;99.90
22337;DHT22;14992;50.844;4.418;2022-08-25T06:48:09;25.20;99.90
22337;DHT22;14992;50.844;4.418;2022-08-25T06:50:46;25.40;99.90
22337;DHT22;14992;50.844;4.418;2022-08-25T06:53:42;25.50;99.90
22337;DHT22;14992;50.844;4.418;2022-08-25T06:56:23;25.80;99.90
22337;DHT22;14992;50.844;4.418;2022-08-25T06:59:13;25.90;99.90
22337;DHT22;14992;50.844;4.418;2022-08-25T07:02:12;25.90;99.90
22337;DHT22;14992;50.844;4.418;2022-08-25T07:04:54;26.20;99.90
22337;DHT22;14992;50.844;4.418;2022-08-25T07:08:07;26.30;99.90
22337;DHT22;14992;50.844;4.418;2022-08-25T07:10:49;26.30;99.90
22337;DHT22;14992;50.844;4.418;2022-08-25T07:13:44;26.20;99.90
22337;DHT22;14992;50.844;4.418;2022-08-25T07:16:31;26.30;99.90
22337;DHT22;14992;50.844;4.418;2022-08-25T07:19:20;26.50;99.90
22337;DHT22;14992;50.844;4.418;2022-08-25T07:22:01;26.40;99.90
22337;DHT22;14992;50.844;4.418;2022-08-25T07:24:50;26.40;99.90
22337;DHT22;14992;50.844;4.418;2022-08-25T07:27:31;26.40;99.90
22337;DHT22;14992;50.844;4.418;2022-08-25T07:30:21;26.40;99.90
22337;DHT22;14992;50.844;4.418;2022-08-25T07:33:04;26.30;99.90
22337;DHT22;14992;50.844;4.418;2022-08-25T07:35:53;26.10;99.90
22337;DHT22;14992;50.844;4.418;2022-08-25T07:38:35;26.20;99.90
22337;DHT22;14992;50.844;4.418;2022-08-25T07:41:36;26.20;99.90
22337;DHT22;14992;50.844;4.418;2022-08-25T07:44:20;26.30;99.90
22337;DHT22;14992;50.844;4.418;2022-08-25T07:47:16;26.30;99.90
22337;DHT22;14992;50.844;4.418;2022-08-25T07:49:59;26.60;99.90
22337;DHT22;14992;50.844;4.418;2022-08-25T07:52:54;26.70;99.90
22337;DHT22;14992;50.844;4.418;2022-08-25T07:55:37;26.80;99.90
22337;DHT22;14992;50.844;4.418;2022-08-25T07:58:33;26.80;99.90
22337;DHT22;14992;50.844;4.418;2022-08-25T08:01:28;26.80;99.90
22337;DHT22;14992;50.844;4.418;2022-08-25T08:04:23;26.90;99.90
22337;DHT22;14992;50.844;4.418;2022-08-25T08:07:05;27.00;99.90
22337;DHT22;14992;50.844;4.418;2022-08-25T08:09:53;27.10;99.90
22337;DHT22;14992;50.844;4.418;2022-08-25T08:13:02;27.30;99.90
22337;DHT22;14992;50.844;4.418;2022-08-25T08:15:45;27.10;99.90
22337;DHT22;14992;50.844;4.418;2022-08-25T08:18:33;27.30;99.90
22337;DHT22;14992;50.844;4.418;2022-08-25T08:21:29;27.40;99.90
22337;DHT22;14992;50.844;4.418;2022-08-25T08:24:06;27.50;99.90
22337;DHT22;14992;50.844;4.418;2022-08-25T08:27:21;27.50;99.90
22337;DHT22;14992;50.844;4.418;2022-08-25T08:30:05;27.70;99.90
22337;DHT22;14992;50.844;4.418;2022-08-25T08:33:03;27.60;99.90
22337;DHT22;14992;50.844;4.418;2022-08-25T08:35:54;27.70;99.90
22337;DHT22;14992;50.844;4.418;2022-08-25T08:38:49;27.60;99.90
22337;DHT22;14992;50.844;4.418;2022-08-25T08:41:49;27.70;99.90
22337;DHT22;14992;50.844;4.418;2022-08-25T08:45:21;27.80;99.90
22337;DHT22;14992;50.844;4.418;2022-08-25T08:51:43;27.80;99.90
22337;DHT22;14992;50.844;4.418;2022-08-25T08:54:31;28.10;99.10
22337;DHT22;14992;50.844;4.418;2022-08-25T08:57:30;28.30;98.40
22337;DHT22;14992;50.844;4.418;2022-08-25T09:00:20;28.20;97.80
22337;DHT22;14992;50.844;4.418;2022-08-25T09:03:27;28.40;97.80
22337;DHT22;14992;50.844;4.418;2022-08-25T09:06:17;28.60;96.30
22337;DHT22;14992;50.844;4.418;2022-08-25T09:09:09;28.70;95.50
22337;DHT22;14992;50.844;4.418;2022-08-25T09:12:06;28.80;95.20
22337;DHT22;14992;50.844;4.418;2022-08-25T09:15:08;28.70;94.60
22337;DHT22;14992;50.844;4.418;2022-08-25T09:18:05;28.90;94.70
22337;DHT22;14992;50.844;4.418;2022-08-25T09:21:04;29.00;94.30
22337;DHT22;14992;50.844;4.418;2022-08-25T09:24:02;29.00;94.00
22337;DHT22;14992;50.844;4.418;2022-08-25T09:27:13;29.10;93.90
22337;DHT22;14992;50.844;4.418;2022-08-25T09:30:04;29.40;93.00
22337;DHT22;14992;50.844;4.418;2022-08-25T09:33:07;29.40;92.20
22337;DHT22;14992;50.844;4.418;2022-08-25T09:35:42;29.30;91.90
22337;DHT22;14992;50.844;4.418;2022-08-25T09:38:37;29.50;92.00
22337;DHT22;14992;50.844;4.418;2022-08-25T09:41:43;29.50;91.40
22337;DHT22;14992;50.844;4.418;2022-08-25T09:44:37;29.60;91.00
22337;DHT22;14992;50.844;4.418;2022-08-25T09:47:24;29.90;89.60
22337;DHT22;14992;50.844;4.418;2022-08-25T09:50:22;29.90;88.50
22337;DHT22;14992;50.844;4.418;2022-08-25T09:53:12;30.20;88.40
22337;DHT22;14992;50.844;4.418;2022-08-25T09:55:59;30.00;87.00
22337;DHT22;14992;50.844;4.418;2022-08-25T09:58:48;30.00;87.90
22337;DHT22;14992;50.844;4.418;2022-08-25T10:01:56;30.20;85.10
22337;DHT22;14992;50.844;4.418;2022-08-25T10:04:39;30.40;84.20
22337;DHT22;14992;50.844;4.418;2022-08-25T10:07:38;30.40;83.10
22337;DHT22;14992;50.844;4.418;2022-08-25T10:10:30;30.60;82.40
22337;DHT22;14992;50.844;4.418;2022-08-25T10:13:35;30.60;82.30
22337;DHT22;14992;50.844;4.418;2022-08-25T10:16:22;30.70;81.50
22337;DHT22;14992;50.844;4.418;2022-08-25T10:19:24;30.50;82.50
22337;DHT22;14992;50.844;4.418;2022-08-25T10:22:09;30.70;80.30
22337;DHT22;14992;50.844;4.418;2022-08-25T10:24:59;30.80;80.10
22337;DHT22;14992;50.844;4.418;2022-08-25T10:27:47;30.80;80.00
22337;DHT22;14992;50.844;4.418;2022-08-25T10:30:49;30.90;78.30
22337;DHT22;14992;50.844;4.418;2022-08-25T10:33:38;30.70;77.70
22337;DHT22;14992;50.844;4.418;2022-08-25T10:36:48;30.70;77.80
22337;DHT22;14992;50.844;4.418;2022-08-25T10:39:39;30.80;76.00
22337;DHT22;14992;50.844;4.418;2022-08-25T10:42:39;30.90;74.40
22337;DHT22;14992;50.844;4.418;2022-08-25T10:45:24;31.20;73.90
22337;DHT22;14992;50.844;4.418;2022-08-25T10:48:57;31.30;74.10
22337;DHT22;14992;50.844;4.418;2022-08-25T10:51:46;31.40;72.90
22337;DHT22;14992;50.844;4.418;2022-08-25T10:54:49;31.30;71.80
22337;DHT22;14992;50.844;4.418;2022-08-25T10:57:37;31.30;70.70
22337;DHT22;14992;50.844;4.418;2022-08-25T11:00:33;31.30;68.40
22337;DHT22;14992;50.844;4.418;2022-08-25T11:03:42;31.60;66.60
22337;DHT22;14992;50.844;4.418;2022-08-25T11:06:41;31.80;67.40
22337;DHT22;14992;50.844;4.418;2022-08-25T11:09:24;31.50;68.90
22337;DHT22;14992;50.844;4.418;2022-08-25T11:12:28;31.40;70.10
22337;DHT22;14992;50.844;4.418;2022-08-25T11:15:14;31.60;69.50
22337;DHT22;14992;50.844;4.418;2022-08-25T11:18:13;31.90;67.40
22337;DHT22;14992;50.844;4.418;2022-08-25T11:21:01;32.10;66.10
22337;DHT22;14992;50.844;4.418;2022-08-25T11:24:04;31.80;67.70
22337;DHT22;14992;50.844;4.418;2022-08-25T11:26:55;31.80;66.80
22337;DHT22;14992;50.844;4.418;2022-08-25T11:29:52;32.00;66.80
22337;DHT22;14992;50.844;4.418;2022-08-25T11:32:39;32.00;66.30
22337;DHT22;14992;50.844;4.418;2022-08-25T11:35:34;32.20;65.60
22337;DHT22;14992;50.844;4.418;2022-08-25T11:38:31;32.10;64.80
22337;DHT22;14992;50.844;4.418;2022-08-25T11:41:34;31.80;66.00
22337;DHT22;14992;50.844;4.418;2022-08-25T11:44:37;31.80;66.00
22337;DHT22;14992;50.844;4.418;2022-08-25T11:47:52;31.90;66.10
22337;DHT22;14992;50.844;4.418;2022-08-25T11:50:55;31.90;64.90
22337;DHT22;14992;50.844;4.418;2022-08-25T11:54:06;32.00;65.00
22337;DHT22;14992;50.844;4.418;2022-08-25T11:56:57;32.10;65.80
22337;DHT22;14992;50.844;4.418;2022-08-25T12:00:11;32.10;65.40
22337;DHT22;14992;50.844;4.418;2022-08-25T12:10:21;32.70;63.10
22337;DHT22;14992;50.844;4.418;2022-08-25T12:13:37;32.60;63.90
22337;DHT22;14992;50.844;4.418;2022-08-25T12:16:38;32.60;63.50
22337;DHT22;14992;50.844;4.418;2022-08-25T12:19:48;32.70;64.50
22337;DHT22;14992;50.844;4.418;2022-08-25T12:22:53;32.70;64.10
22337;DHT22;14992;50.844;4.418;2022-08-25T12:25:48;32.60;64.20
22337;DHT22;14992;50.844;4.418;2022-08-25T12:28:51;32.60;63.10
22337;DHT22;14992;50.844;4.418;2022-08-25T12:35:28;32.70;63.30
22337;DHT22;14992;50.844;4.418;2022-08-25T12:38:30;32.70;63.40
22337;DHT22;14992;50.844;4.418;2022-08-25T12:41:20;32.60;63.70
22337;DHT22;14992;50.844;4.418;2022-08-25T12:44:32;32.70;62.30
22337;DHT22;14992;50.844;4.418;2022-08-25T12:47:29;32.60;62.50
22337;DHT22;14992;50.844;4.418;2022-08-25T12:50:37;32.60;62.30
22337;DHT22;14992;50.844;4.418;2022-08-25T12:53:27;32.70;62.40
22337;DHT22;14992;50.844;4.418;2022-08-25T12:56:30;32.70;62.70
22337;DHT22;14992;50.844;4.418;2022-08-25T12:59:19;32.80;62.50
22337;DHT22;14992;50.844;4.418;2022-08-25T13:06:21;32.80;65.10
22337;DHT22;14992;50.844;4.418;2022-08-25T13:09:44;32.70;62.20
22337;DHT22;14992;50.844;4.418;2022-08-25T13:12:51;32.60;61.80
22337;DHT22;14992;50.844;4.418;2022-08-25T13:15:39;32.40;65.00
22337;DHT22;14992;50.844;4.418;2022-08-25T13:18:36;32.50;63.20
22337;DHT22;14992;50.844;4.418;2022-08-25T13:21:28;32.60;65.70
22337;DHT22;14992;50.844;4.418;2022-08-25T13:24:21;32.50;63.10
22337;DHT22;14992;50.844;4.418;2022-08-25T13:27:20;32.70;63.60
22337;DHT22;14992;50.844;4.418;2022-08-25T13:30:21;33.20;61.60
22337;DHT22;14992;50.844;4.418;2022-08-25T13:33:16;33.50;62.30
22337;DHT22;14992;50.844;4.418;2022-08-25T13:35:58;33.80;59.80
22337;DHT22;14992;50.844;4.418;2022-08-25T13:39:11;33.60;60.00
22337;DHT22;14992;50.844;4.418;2022-08-25T13:42:27;33.40;60.60
22337;DHT22;14992;50.844;4.418;2022-08-25T13:45:14;33.40;62.10
22337;DHT22;14992;50.844;4.418;2022-08-25T13:48:13;33.40;60.00
22337;DHT22;14992;50.844;4.418;2022-08-25T13:51:07;33.40;62.00
22337;DHT22;14992;50.844;4.418;2022-08-25T13:54:04;33.50;60.50
22337;DHT22;14992;50.844;4.418;2022-08-25T13:56:52;33.40;61.70
22337;DHT22;14992;50.844;4.418;2022-08-25T13:59:55;33.50;62.20
22337;DHT22;14992;50.844;4.418;2022-08-25T14:06:25;33.10;60.70
22337;DHT22;14992;50.844;4.418;2022-08-25T14:09:37;32.90;61.60
22337;DHT22;14992;50.844;4.418;2022-08-25T14:12:47;32.70;61.60
22337;DHT22;14992;50.844;4.418;2022-08-25T14:15:54;32.80;66.10
22337;DHT22;14992;50.844;4.418;2022-08-25T14:19:14;32.60;72.40
22337;DHT22;14992;50.844;4.418;2022-08-25T14:22:09;32.30;74.60
22337;DHT22;14992;50.844;4.418;2022-08-25T14:25:06;32.20;75.00
22337;DHT22;14992;50.844;4.418;2022-08-25T14:27:57;32.10;76.10
22337;DHT22;14992;50.844;4.418;2022-08-25T14:30:57;32.00;77.20
22337;DHT22;14992;50.844;4.418;2022-08-25T14:33:48;32.20;77.40
22337;DHT22;14992;50.844;4.418;2022-08-25T14:36:52;32.20;77.00
22337;DHT22;14992;50.844;4.418;2022-08-25T14:39:44;32.40;74.10
22337;DHT22;14992;50.844;4.418;2022-08-25T14:42:49;32.30;72.50
22337;DHT22;14992;50.844;4.418;2022-08-25T14:45:40;32.10;73.40
22337;DHT22;14992;50.844;4.418;2022-08-25T14:48:46;32.10;73.50
22337;DHT22;14992;50.844;4.418;2022-08-25T14:51:39;31.90;73.00
22337;DHT22;14992;50.844;4.418;2022-08-25T14:54:27;31.90;73.40
22337;DHT22;14992;50.844;4.418;2022-08-25T14:57:11;31.90;74.50
22337;DHT22;14992;50.844;4.418;2022-08-25T15:00:00;31.90;74.30
22337;DHT22;14992;50.844;4.418;2022-08-25T15:02:59;31.80;74.70
22337;DHT22;14992;50.844;4.418;2022-08-25T15:05:41;31.70;74.20
22337;DHT22;14992;50.844;4.418;2022-08-25T15:08:36;31.50;74.20
22337;DHT22;14992;50.844;4.418;2022-08-25T15:11:36;31.70;74.10
22337;DHT22;14992;50.844;4.418;2022-08-25T15:14:29;31.60;74.40
22337;DHT22;14992;50.844;4.418;2022-08-25T15:17:13;31.60;75.10
22337;DHT22;14992;50.844;4.418;2022-08-25T15:20:02;31.70;74.30
22337;DHT22;14992;50.844;4.418;2022-08-25T15:22:43;31.90;74.10
22337;DHT22;14992;50.844;4.418;2022-08-25T15:25:33;32.10;78.60
22337;DHT22;14992;50.844;4.418;2022-08-25T15:28:16;32.10;79.20
22337;DHT22;14992;50.844;4.418;2022-08-25T15:31:31;32.00;81.20
22337;DHT22;14992;50.844;4.418;2022-08-25T15:34:29;32.00;82.50
22337;DHT22;14992;50.844;4.418;2022-08-25T15:37:49;32.00;83.50
22337;DHT22;14992;50.844;4.418;2022-08-25T15:40:41;31.70;86.80
22337;DHT22;14992;50.844;4.418;2022-08-25T15:44:06;31.50;88.40
22337;DHT22;14992;50.844;4.418;2022-08-25T15:47:06;31.60;90.20
22337;DHT22;14992;50.844;4.418;2022-08-25T15:50:09;31.50;90.40
22337;DHT22;14992;50.844;4.418;2022-08-25T15:53:01;31.20;91.30
22337;DHT22;14992;50.844;4.418;2022-08-25T15:56:05;30.90;92.40
22337;DHT22;14992;50.844;4.418;2022-08-25T15:59:09;31.00;92.70
22337;DHT22;14992;50.844;4.418;2022-08-25T16:02:25;31.00;93.00
22337;DHT22;14992;50.844;4.418;2022-08-25T16:05:22;31.00;93.20
22337;DHT22;14992;50.844;4.418;2022-08-25T16:08:32;30.90;94.20
22337;DHT22;14992;50.844;4.418;2022-08-25T16:11:20;30.90;94.80
22337;DHT22;14992;50.844;4.418;2022-08-25T16:14:23;30.90;95.20
22337;DHT22;14992;50.844;4.418;2022-08-25T16:17:12;30.90;96.00
22337;DHT22;14992;50.844;4.418;2022-08-25T16:20:18;30.50;97.70
22337;DHT22;14992;50.844;4.418;2022-08-25T16:23:20;30.60;99.10
22337;DHT22;14992;50.844;4.418;2022-08-25T16:26:26;30.50;99.90
22337;DHT22;14992;50.844;4.418;2022-08-25T16:29:25;30.40;99.90
22337;DHT22;14992;50.844;4.418;2022-08-25T16:32:26;30.30;99.90
22337;DHT22;14992;50.844;4.418;2022-08-25T16:35:10;30.00;99.90
22337;DHT22;14992;50.844;4.418;2022-08-25T16:38:23;30.00;99.90
22337;DHT22;14992;50.844;4.418;2022-08-25T16:41:12;30.00;99.90
22337;DHT22;14992;50.844;4.418;2022-08-25T16:44:06;29.90;99.90
22337;DHT22;14992;50.844;4.418;2022-08-25T16:47:14;30.00;99.90
22337;DHT22;14992;50.844;4.418;2022-08-25T16:50:14;30.10;99.90
22337;DHT22;14992;50.844;4.418;2022-08-25T16:53:26;29.90;99.90
22337;DHT22;14992;50.844;4.418;2022-08-25T16:56:47;29.60;99.90
22337;DHT22;14992;50.844;4.418;2022-08-25T16:59:35;29.30;99.90
22337;DHT22;14992;50.844;4.418;2022-08-25T17:02:30;29.20;99.90
22337;DHT22;14992;50.844;4.418;2022-08-25T17:05:13;29.20;99.90
22337;DHT22;14992;50.844;4.418;2022-08-25T17:08:09;29.10;99.90
22337;DHT22;14992;50.844;4.418;2022-08-25T17:11:08;29.00;99.90
22337;DHT22;14992;50.844;4.418;2022-08-25T17:14:03;28.80;99.90
22337;DHT22;14992;50.844;4.418;2022-08-25T17:16:50;28.70;99.90
22337;DHT22;14992;50.844;4.418;2022-08-25T17:19:40;28.40;99.90
22337;DHT22;14992;50.844;4.418;2022-08-25T17:22:29;28.40;99.90
22337;DHT22;14992;50.844;4.418;2022-08-25T17:25:18;28.50;99.90
22337;DHT22;14992;50.844;4.418;2022-08-25T17:28:01;28.40;99.90
22337;DHT22;14992;50.844;4.418;2022-08-25T17:30:52;28.30;99.90
22337;DHT22;14992;50.844;4.418;2022-08-25T17:33:34;28.00;99.90
22337;DHT22;14992;50.844;4.418;2022-08-25T17:36:29;27.90;99.90
22337;DHT22;14992;50.844;4.418;2022-08-25T17:39:13;27.90;99.90
22337;DHT22;14992;50.844;4.418;2022-08-25T17:42:01;27.90;99.90
22337;DHT22;14992;50.844;4.418;2022-08-25T17:44:45;27.90;99.90
22337;DHT22;14992;50.844;4.418;2022-08-25T17:47:35;27.90;99.90
22337;DHT22;14992;50.844;4.418;2022-08-25T17:50:17;27.70;99.90
22337;DHT22;14992;50.844;4.418;2022-08-25T17:53:05;27.70;99.90
22337;DHT22;14992;50.844;4.418;2022-08-25T17:55:57;27.70;99.90
22337;DHT22;14992;50.844;4.418;2022-08-25T17:58:54;27.60;99.90
22337;DHT22;14992;50.844;4.418;2022-08-25T18:01:38;27.70;99.90
22337;DHT22;14992;50.844;4.418;2022-08-25T18:04:27;27.50;99.90
22337;DHT22;14992;50.844;4.418;2022-08-25T18:07:22;27.40;99.90
22337;DHT22;14992;50.844;4.418;2022-08-25T18:10:05;27.40;99.90
22337;DHT22;14992;50.844;4.418;2022-08-25T18:12:53;27.30;99.90
22337;DHT22;14992;50.844;4.418;2022-08-25T18:15:38;27.00;99.90
22337;DHT22;14992;50.844;4.418;2022-08-25T18:18:28;27.20;99.90
22337;DHT22;14992;50.844;4.418;2022-08-25T18:21:24;27.20;99.90
22337;DHT22;14992;50.844;4.418;2022-08-25T18:24:06;27.10;99.90
22337;DHT22;14992;50.844;4.418;2022-08-25T18:27:03;26.90;99.90
22337;DHT22;14992;50.844;4.418;2022-08-25T18:29:39;26.90;99.90
22337;DHT22;14992;50.844;4.418;2022-08-25T18:32:36;27.00;99.90